Strona główna
METAR-TAF:

METAR-TAF

Lotnisko :

Port lotniczy Margaret Ekpo

Calabar, Nigeria

Szerokość geograficzna: 04-58N, Długość geograficzna: 008-21E, wysokość: 63 m

METAR: brakujący

czas: 23:00 (22:00 UTC)

Prognoza

Raport powstał 5 godziny i 0 minut temu, godzina 17:00 UTC
Prognoza ważna od 29 godzina 18 UTC do 30 godzina 24 UTC
Wiatr 2 kt z kierunków zmiennych
Widzialność: 6000 m
Przejściowo
od 30 godzina 03 UTC do 30 godzina 08 UTC
Widzialność: 3000 m
zamglenie, zmętnienie
Prawdopodobieństwo 30%
od 30 godzina 05 UTC do 30 godzina 07 UTC
Widzialność: 1500 m
Stopniowe zmiany
od 30 godzina 08 UTC do 30 godzina 10 UTC
Wiatr 10 kt od północno-północny wschód
Widzialność: 5000 m
zmętnienie

TAF: DNCA 291700Z 2918/3024 VRB02KT 6000 NSC TEMPO 3003/3008 3000 BR HZ PROB30 3005/3007 1500 BECMG 3008/3010 02010KT 5000 HZ

Obserwacja i prognoza pogody dla ponad 4000 lotnisk (raport METAR i TAF).

Dostępne stacje oznaczono żółtymi i czerwonymi punktami na mapie.

Najedź kursorem aby zobaczyć nazwę stacji.

Kliknij aby zobaczyć obserwacje i prognozy pogody.

Aby zmienić mapę: kliknij na zielony przycisk z czarnym krzyżykiem, aby powiększyć; na zielony przycisk z myślnikiem, aby pomniejszyć; na zielone strzałki, aby przejść do map sąsiednich.


METAR-TAF: